createdAt,value
2022-08-02T00:00:48.442Z,5.93
2022-08-02T00:03:16.832Z,6.90
2022-08-02T00:05:53.198Z,6.97
2022-08-02T00:08:22.515Z,3.73
2022-08-02T00:10:51.299Z,3.53
2022-08-02T00:13:21.054Z,11.10
2022-08-02T00:15:49.529Z,6.10
2022-08-02T00:18:18.010Z,6.23
2022-08-02T00:20:46.455Z,5.07
2022-08-02T00:23:14.817Z,5.87
2022-08-02T00:25:54.792Z,6.93
2022-08-02T00:28:28.126Z,3.60
2022-08-02T00:30:58.015Z,8.87
2022-08-02T00:34:05.296Z,8.73
2022-08-02T00:36:16.382Z,5.53
2022-08-02T00:38:46.417Z,8.10
2022-08-02T00:41:16.819Z,9.23
2022-08-02T00:43:48.636Z,5.93
2022-08-02T00:46:18.103Z,6.60
2022-08-02T00:48:47.214Z,6.10
2022-08-02T00:51:17.567Z,8.03
2022-08-02T00:53:46.014Z,3.07
2022-08-02T00:56:14.369Z,7.10
2022-08-02T00:58:42.840Z,9.73
2022-08-02T01:01:12.843Z,7.57
2022-08-02T01:03:41.323Z,3.63
2022-08-02T01:06:11.587Z,12.20
2022-08-02T01:08:41.305Z,10.00
2022-08-02T01:11:12.426Z,5.20
2022-08-02T01:13:41.264Z,5.47
2022-08-02T01:16:20.387Z,6.70
2022-08-02T01:18:54.937Z,8.07
2022-08-02T01:21:39.558Z,13.47
2022-08-02T01:24:25.737Z,6.67
2022-08-02T01:26:59.768Z,5.03
2022-08-02T01:29:33.126Z,9.70
2022-08-02T01:32:07.682Z,5.97
2022-08-02T01:34:41.128Z,5.27
2022-08-02T01:37:15.662Z,7.07
2022-08-02T01:39:46.197Z,5.20
2022-08-02T01:42:17.234Z,8.30
2022-08-02T01:44:48.390Z,7.03
2022-08-02T01:47:20.080Z,8.43
2022-08-02T01:49:51.668Z,5.60
2022-08-02T01:52:26.270Z,7.37
2022-08-02T01:55:01.304Z,4.70
2022-08-02T01:57:35.052Z,7.77
2022-08-02T02:00:13.200Z,9.07
2022-08-02T02:02:47.691Z,9.53
2022-08-02T02:05:19.605Z,8.73
2022-08-02T02:07:51.147Z,7.17
2022-08-02T02:10:26.239Z,6.60
2022-08-02T02:12:56.271Z,6.33
2022-08-02T02:15:27.547Z,6.27
2022-08-02T02:18:13.051Z,3.37
2022-08-02T02:20:43.779Z,6.80
2022-08-02T02:23:13.396Z,7.80
2022-08-02T02:25:46.756Z,6.63
2022-08-02T02:28:22.170Z,6.63
2022-08-02T02:30:56.513Z,6.23
2022-08-02T02:33:29.364Z,4.67
2022-08-02T02:35:59.635Z,8.53
2022-08-02T02:38:31.840Z,3.80
2022-08-02T02:41:03.001Z,5.43
2022-08-02T02:43:34.200Z,5.27
2022-08-02T02:46:06.640Z,10.30
2022-08-02T02:48:36.440Z,4.23
2022-08-02T02:51:08.157Z,5.70
2022-08-02T02:54:31.070Z,4.93
2022-08-02T02:56:32.760Z,6.97
2022-08-02T02:59:01.792Z,4.60
2022-08-02T03:01:55.581Z,5.47
2022-08-02T03:04:22.420Z,6.93
2022-08-02T03:06:51.019Z,3.90
2022-08-02T03:09:19.360Z,13.73
2022-08-02T03:11:49.018Z,12.00
2022-08-02T03:14:19.022Z,4.60
2022-08-02T03:16:50.929Z,6.30
2022-08-02T03:19:20.594Z,6.80
2022-08-02T03:21:57.376Z,3.33
2022-08-02T03:24:28.065Z,5.93
2022-08-02T03:26:57.205Z,4.73
2022-08-02T03:29:25.959Z,4.17
2022-08-02T03:31:56.643Z,7.77
2022-08-02T03:34:25.619Z,11.10
2022-08-02T03:36:58.264Z,6.10
2022-08-02T03:39:27.727Z,9.80
2022-08-02T03:41:57.273Z,8.77
2022-08-02T03:44:27.691Z,10.93
2022-08-02T03:46:58.956Z,6.07
2022-08-02T03:49:27.706Z,6.97
2022-08-02T03:51:56.933Z,5.77
2022-08-02T03:54:32.949Z,9.77
2022-08-02T03:57:03.950Z,7.97
2022-08-02T03:59:41.508Z,5.67
2022-08-02T04:02:11.961Z,4.63
2022-08-02T04:04:40.964Z,8.90
2022-08-02T04:07:09.573Z,7.80
2022-08-02T04:09:37.960Z,6.17
2022-08-02T04:12:07.117Z,8.20
2022-08-02T04:14:36.878Z,6.60
2022-08-02T04:17:09.613Z,14.60
2022-08-02T04:19:45.091Z,7.33
2022-08-02T04:22:18.129Z,14.33
2022-08-02T04:24:50.745Z,6.83
2022-08-02T04:27:51.096Z,7.93
2022-08-02T04:30:10.559Z,5.93
2022-08-02T04:32:39.619Z,10.83
2022-08-02T04:35:25.528Z,10.63
2022-08-02T04:38:09.540Z,6.97
2022-08-02T04:40:39.050Z,7.80
2022-08-02T04:43:07.637Z,7.03
2022-08-02T04:45:37.341Z,8.80
2022-08-02T04:48:06.673Z,6.60
2022-08-02T04:50:36.710Z,10.67
2022-08-02T04:53:05.495Z,13.10
2022-08-02T04:55:34.047Z,8.93
2022-08-02T04:58:06.659Z,11.17
2022-08-02T05:00:38.361Z,10.10
2022-08-02T05:03:06.973Z,10.80
2022-08-02T05:05:37.273Z,13.30
2022-08-02T05:08:06.087Z,8.17
2022-08-02T05:10:34.512Z,12.87
2022-08-02T05:13:05.622Z,12.20
2022-08-02T05:15:34.099Z,10.33
2022-08-02T05:18:02.504Z,8.60
2022-08-02T05:20:31.071Z,12.30
2022-08-02T05:23:00.944Z,11.07
2022-08-02T05:25:29.580Z,9.87
2022-08-02T05:27:58.017Z,11.17
2022-08-02T05:30:26.613Z,11.07
2022-08-02T05:32:55.128Z,10.80
2022-08-02T05:35:25.002Z,13.73
2022-08-02T05:37:54.031Z,12.07
2022-08-02T05:40:25.962Z,13.23
2022-08-02T05:42:54.494Z,17.37
2022-08-02T05:45:23.249Z,13.23
2022-08-02T05:47:51.630Z,15.87
2022-08-02T05:50:20.348Z,11.43
2022-08-02T05:52:52.906Z,12.17
2022-08-02T05:55:29.438Z,14.37
2022-08-02T05:58:04.401Z,20.37
2022-08-02T06:00:35.485Z,15.10
2022-08-02T06:03:23.331Z,13.30
2022-08-02T06:06:00.377Z,12.57
2022-08-02T06:08:33.570Z,14.20
2022-08-02T06:11:07.643Z,16.40
2022-08-02T06:13:36.388Z,12.20
2022-08-02T06:16:06.501Z,14.10
2022-08-02T06:18:43.594Z,11.37
2022-08-02T06:22:34.575Z,15.00
2022-08-02T06:24:00.743Z,16.97
2022-08-02T06:26:30.984Z,15.23
2022-08-02T06:28:59.722Z,15.67
2022-08-02T06:31:27.995Z,13.43
2022-08-02T06:33:56.854Z,13.37
2022-08-02T06:36:33.530Z,15.87
2022-08-02T06:39:05.611Z,17.87
2022-08-02T06:41:42.486Z,12.63
2022-08-02T06:47:13.401Z,12.87
2022-08-02T06:49:52.485Z,9.70
2022-08-02T06:52:28.393Z,15.10
2022-08-02T06:54:59.064Z,11.47
2022-08-02T06:57:29.093Z,11.80
2022-08-02T06:59:58.464Z,14.67
2022-08-02T07:02:27.016Z,12.83
2022-08-02T07:04:57.119Z,13.77
2022-08-02T07:07:25.762Z,12.70
2022-08-02T07:10:00.414Z,8.57
2022-08-02T07:12:32.460Z,11.10
2022-08-02T07:15:02.482Z,9.77
2022-08-02T07:17:31.775Z,12.83
2022-08-02T07:20:00.515Z,7.03
2022-08-02T07:22:29.496Z,8.77
2022-08-02T07:25:01.051Z,6.63
2022-08-02T07:27:31.220Z,8.77
2022-08-02T07:29:59.726Z,8.07
2022-08-02T07:32:33.112Z,8.07
2022-08-02T07:35:06.571Z,9.87
2022-08-02T07:37:55.356Z,9.40
2022-08-02T07:40:26.230Z,8.17
2022-08-02T07:43:02.714Z,7.57
2022-08-02T07:45:35.943Z,6.60
2022-08-02T07:48:06.106Z,10.40
2022-08-02T07:50:34.471Z,8.83
2022-08-02T07:53:02.826Z,9.23
2022-08-02T07:55:39.977Z,10.13
2022-08-02T07:58:12.945Z,13.90
2022-08-02T08:00:44.334Z,11.07
2022-08-02T08:03:13.189Z,9.83
2022-08-02T08:05:42.257Z,5.67
2022-08-02T08:08:15.256Z,8.83
2022-08-02T08:10:45.372Z,7.60
2022-08-02T08:13:15.242Z,9.47
2022-08-02T08:15:52.317Z,6.57
2022-08-02T08:18:22.047Z,7.57
2022-08-02T08:20:51.898Z,8.00
2022-08-02T08:23:20.461Z,11.10
2022-08-02T08:25:48.817Z,8.33
2022-08-02T08:28:18.828Z,9.10
2022-08-02T08:30:48.521Z,6.47
2022-08-02T08:33:17.444Z,6.37
2022-08-02T08:35:45.892Z,6.77
2022-08-02T08:38:15.747Z,9.43
2022-08-02T08:40:44.858Z,6.67
2022-08-02T08:43:14.119Z,7.57
2022-08-02T08:45:44.929Z,7.60
2022-08-02T08:48:30.275Z,8.07
2022-08-02T08:51:05.791Z,9.90
2022-08-02T08:53:41.170Z,6.43
2022-08-02T08:56:15.407Z,7.50
2022-08-02T08:58:45.294Z,10.87
2022-08-02T09:01:16.987Z,6.23
2022-08-02T09:03:46.165Z,6.80
2022-08-02T09:06:14.667Z,4.57
2022-08-02T09:08:43.144Z,9.83
2022-08-02T09:11:16.688Z,4.80
2022-08-02T09:13:52.927Z,7.97
2022-08-02T09:16:37.705Z,6.57
2022-08-02T09:19:20.261Z,6.00
2022-08-02T09:21:50.442Z,8.03
2022-08-02T09:24:20.990Z,4.03
2022-08-02T09:26:50.860Z,5.57
2022-08-02T09:29:21.585Z,6.37
2022-08-02T09:31:51.808Z,5.37
2022-08-02T09:34:20.508Z,6.33
2022-08-02T09:36:54.411Z,8.03
2022-08-02T09:39:23.999Z,8.83
2022-08-02T09:41:52.473Z,6.00
2022-08-02T09:44:20.912Z,8.33
2022-08-02T09:46:49.437Z,5.30
2022-08-02T09:49:20.449Z,5.13
2022-08-02T09:51:51.445Z,3.43
2022-08-02T09:54:21.823Z,4.87
2022-08-02T09:56:52.321Z,7.17
2022-08-02T09:59:24.728Z,5.93
2022-08-02T10:02:00.409Z,4.83
2022-08-02T10:04:34.559Z,3.50
2022-08-02T10:07:21.594Z,5.87
2022-08-02T10:09:51.666Z,8.40
2022-08-02T10:12:21.037Z,4.97
2022-08-02T10:14:52.379Z,8.13
2022-08-02T10:17:22.272Z,3.57
2022-08-02T10:20:03.207Z,6.07
2022-08-02T10:22:34.805Z,4.22
2022-08-02T10:25:05.721Z,7.47
2022-08-02T10:28:02.555Z,8.70
2022-08-02T10:30:27.881Z,4.43
2022-08-02T10:32:58.997Z,6.73
2022-08-02T10:35:31.242Z,8.13
2022-08-02T10:38:03.889Z,3.33
2022-08-02T10:40:46.037Z,2.90
2022-08-02T10:43:31.163Z,4.60
2022-08-02T10:46:25.742Z,3.03
2022-08-02T10:52:10.879Z,3.40
2022-08-02T10:54:41.604Z,3.35
2022-08-02T10:57:21.157Z,6.78
2022-08-02T10:59:51.480Z,3.13
2022-08-02T11:02:41.213Z,2.57
2022-08-02T11:05:12.978Z,6.80
2022-08-02T11:07:47.704Z,3.28
2022-08-02T11:10:45.311Z,3.47
2022-08-02T11:13:15.216Z,5.18
2022-08-02T11:16:10.646Z,5.38
2022-08-02T11:19:06.785Z,6.07
2022-08-02T11:21:36.565Z,4.60
2022-08-02T11:24:31.490Z,1.73
2022-08-02T11:27:00.612Z,4.32
2022-08-02T11:29:40.629Z,4.80
2022-08-02T11:32:10.515Z,4.43
2022-08-02T11:34:40.796Z,5.90
2022-08-02T11:37:09.237Z,6.75
2022-08-02T11:39:38.925Z,4.13
2022-08-02T11:42:08.566Z,6.57
2022-08-02T11:44:43.332Z,8.48
2022-08-02T11:47:12.628Z,4.10
2022-08-02T11:49:41.090Z,6.72
2022-08-02T11:52:11.504Z,3.45
2022-08-02T11:54:43.321Z,8.68
2022-08-02T11:57:20.145Z,1.65
2022-08-02T11:59:50.934Z,3.47
2022-08-02T12:02:20.127Z,4.20
2022-08-02T12:04:58.080Z,10.15
2022-08-02T12:07:34.443Z,3.60
2022-08-02T12:10:08.260Z,2.47
2022-08-02T12:12:49.143Z,2.55
2022-08-02T12:15:30.354Z,3.28
2022-08-02T12:18:17.013Z,2.03
2022-08-02T12:20:45.584Z,2.00
2022-08-02T12:23:14.645Z,3.85
2022-08-02T12:25:44.535Z,6.63
2022-08-02T12:28:18.332Z,5.00
2022-08-02T12:30:55.144Z,4.15
2022-08-02T12:33:24.973Z,3.78
2022-08-02T12:35:53.948Z,3.75
2022-08-02T12:38:23.134Z,8.35
2022-08-02T12:40:52.992Z,2.35
2022-08-02T12:43:24.252Z,2.38
2022-08-02T12:45:55.032Z,3.05
2022-08-02T12:48:38.442Z,2.17
2022-08-02T12:51:23.755Z,7.55
2022-08-02T12:53:59.136Z,2.58
2022-08-02T12:56:32.198Z,2.97
2022-08-02T12:59:01.294Z,3.33
2022-08-02T13:01:31.215Z,2.40
2022-08-02T13:04:11.009Z,3.40
2022-08-02T13:06:44.431Z,2.15
2022-08-02T13:09:15.783Z,6.97
2022-08-02T13:11:46.372Z,3.65
2022-08-02T13:14:15.660Z,3.25
2022-08-02T13:16:46.108Z,4.55
2022-08-02T13:19:16.469Z,3.47
2022-08-02T13:22:01.154Z,2.85
2022-08-02T13:24:41.024Z,4.80
2022-08-02T13:27:22.585Z,4.65
2022-08-02T13:29:52.155Z,2.00
2022-08-02T13:32:22.280Z,4.53
2022-08-02T13:34:51.964Z,3.67
2022-08-02T13:37:20.710Z,4.10
2022-08-02T13:40:18.845Z,1.88
2022-08-02T13:42:41.341Z,3.55
2022-08-02T13:45:12.685Z,3.17
2022-08-02T13:48:04.749Z,1.95
2022-08-02T13:50:34.396Z,1.63
2022-08-02T13:53:02.971Z,5.13
2022-08-02T13:55:31.539Z,3.88
2022-08-02T13:58:02.039Z,6.50
2022-08-02T14:00:34.682Z,1.50
2022-08-02T14:03:07.238Z,1.42
2022-08-02T14:05:48.358Z,2.13
2022-08-02T14:08:18.614Z,2.55
2022-08-02T14:10:48.031Z,1.63
2022-08-02T14:13:19.409Z,3.85
2022-08-02T14:15:48.502Z,3.15
2022-08-02T14:18:17.560Z,1.98
2022-08-02T14:20:46.977Z,5.00
2022-08-02T14:23:16.178Z,1.50
2022-08-02T14:25:45.010Z,4.25
2022-08-02T14:28:13.459Z,3.92
2022-08-02T14:30:43.565Z,4.30
2022-08-02T14:33:13.711Z,3.10
2022-08-02T14:35:42.080Z,2.38
2022-08-02T14:38:10.600Z,3.10
2022-08-02T14:40:39.278Z,1.40
2022-08-02T14:43:08.398Z,4.07
2022-08-02T14:45:40.898Z,2.15
2022-08-02T14:48:14.672Z,1.65
2022-08-02T14:50:43.593Z,1.75
2022-08-02T14:53:13.227Z,1.67
2022-08-02T14:55:43.683Z,2.70
2022-08-02T14:58:13.020Z,5.05
2022-08-02T15:00:42.740Z,2.47
2022-08-02T15:03:12.891Z,5.15
2022-08-02T15:05:43.008Z,2.60
2022-08-02T15:08:11.580Z,2.33
2022-08-02T15:10:45.906Z,6.72
2022-08-02T15:13:14.629Z,6.18
2022-08-02T15:15:43.861Z,2.08
2022-08-02T15:18:14.471Z,3.25
2022-08-02T15:20:57.205Z,4.50
2022-08-02T15:23:37.457Z,4.07
2022-08-02T15:26:07.641Z,3.90
2022-08-02T15:28:38.694Z,2.40
2022-08-02T15:31:07.359Z,3.60
2022-08-02T15:33:36.293Z,2.20
2022-08-02T15:36:07.362Z,2.90
2022-08-02T15:38:36.748Z,4.35
2022-08-02T15:41:05.862Z,2.38
2022-08-02T15:44:00.263Z,1.08
2022-08-02T15:46:31.063Z,7.03
2022-08-02T15:49:04.422Z,3.83
2022-08-02T15:51:34.761Z,3.55
2022-08-02T15:54:03.537Z,1.90
2022-08-02T15:56:32.136Z,3.00
2022-08-02T15:59:00.994Z,2.78
2022-08-02T16:01:37.163Z,4.00
2022-08-02T16:04:07.344Z,4.72
2022-08-02T16:06:37.915Z,7.00
2022-08-02T16:09:06.619Z,3.75
2022-08-02T16:11:35.393Z,3.22
2022-08-02T16:14:06.933Z,2.17
2022-08-02T16:16:37.646Z,5.20
2022-08-02T16:19:47.810Z,3.58
2022-08-02T16:21:57.491Z,4.63
2022-08-02T16:24:27.396Z,4.72
2022-08-02T16:26:56.125Z,3.33
2022-08-02T16:29:24.621Z,1.42
2022-08-02T16:31:53.269Z,3.50
2022-08-02T16:34:22.196Z,1.30
2022-08-02T16:36:51.433Z,4.13
2022-08-02T16:39:21.810Z,3.30
2022-08-02T16:44:39.090Z,4.50
2022-08-02T16:47:37.072Z,3.90
2022-08-02T16:50:11.635Z,4.63
2022-08-02T16:52:40.690Z,3.85
2022-08-02T16:55:13.236Z,1.58
2022-08-02T16:57:43.466Z,2.60
2022-08-02T17:00:16.215Z,1.42
2022-08-02T17:02:47.185Z,4.35
2022-08-02T17:05:16.646Z,2.08
2022-08-02T17:08:15.453Z,3.67
2022-08-02T17:10:39.291Z,5.55
2022-08-02T17:13:11.713Z,3.65
2022-08-02T17:16:01.257Z,3.58
2022-08-02T17:18:31.185Z,1.50
2022-08-02T17:21:04.060Z,1.60
2022-08-02T17:24:03.897Z,5.25
2022-08-02T17:26:22.783Z,2.78
2022-08-02T17:29:16.282Z,8.18
2022-08-02T17:31:45.531Z,3.05
2022-08-02T17:34:18.438Z,5.85
2022-08-02T17:36:57.010Z,5.07
2022-08-02T17:39:33.906Z,1.88
2022-08-02T17:42:05.452Z,4.43
2022-08-02T17:44:37.048Z,4.43
2022-08-02T17:47:30.943Z,5.07
2022-08-02T17:50:00.716Z,2.08
2022-08-02T17:52:50.912Z,7.18
2022-08-02T17:55:20.177Z,4.50
2022-08-02T17:57:57.319Z,5.07
2022-08-02T18:00:34.085Z,2.17
2022-08-02T18:03:06.046Z,6.93
2022-08-02T18:05:55.479Z,4.03
2022-08-02T18:08:24.719Z,3.28
2022-08-02T18:10:54.011Z,2.22
2022-08-02T18:13:24.638Z,7.00
2022-08-02T18:15:59.417Z,5.55
2022-08-02T18:18:29.697Z,3.10
2022-08-02T18:21:16.143Z,3.28
2022-08-02T18:23:58.724Z,4.38
2022-08-02T18:26:29.001Z,2.03
2022-08-02T18:29:04.028Z,3.53
2022-08-02T18:31:39.348Z,3.55
2022-08-02T18:34:08.924Z,3.50
2022-08-02T18:36:47.314Z,3.78
2022-08-02T18:39:17.130Z,5.07
2022-08-02T18:41:48.005Z,3.83
2022-08-02T18:44:18.917Z,2.65
2022-08-02T18:46:49.336Z,4.38
2022-08-02T18:49:18.726Z,3.97
2022-08-02T18:51:47.810Z,2.63
2022-08-02T18:54:16.825Z,3.20
2022-08-02T18:56:59.599Z,4.70
2022-08-02T19:02:18.680Z,6.55
2022-08-02T19:04:47.201Z,6.03
2022-08-02T19:07:15.891Z,3.73
2022-08-02T19:09:51.364Z,5.97
2022-08-02T19:15:17.372Z,7.20
2022-08-02T19:17:55.460Z,2.70
2022-08-02T19:20:26.695Z,4.87
2022-08-02T19:22:58.589Z,3.90
2022-08-02T19:25:27.723Z,8.23
2022-08-02T19:27:57.261Z,2.73
2022-08-02T19:30:28.113Z,6.17
2022-08-02T19:33:00.169Z,6.63
2022-08-02T19:35:34.415Z,2.67
2022-08-02T19:38:08.577Z,7.63
2022-08-02T19:40:39.117Z,7.80
2022-08-02T19:44:26.589Z,5.30
2022-08-02T19:45:59.290Z,2.27
2022-08-02T19:48:28.434Z,3.43
2022-08-02T19:51:01.232Z,3.90
2022-08-02T19:53:48.274Z,5.97
2022-08-02T19:56:25.397Z,3.03
2022-08-02T20:01:48.832Z,4.70
2022-08-02T20:04:23.223Z,5.03
2022-08-02T20:06:52.445Z,5.87
2022-08-02T20:09:33.434Z,6.50
2022-08-02T20:12:16.313Z,5.83
2022-08-02T20:14:51.274Z,3.90
2022-08-02T20:17:22.537Z,4.60
2022-08-02T20:19:52.251Z,2.03
2022-08-02T20:22:21.159Z,4.53
2022-08-02T20:24:50.186Z,6.20
2022-08-02T20:27:23.778Z,8.27
2022-08-02T20:29:52.560Z,6.97
2022-08-02T20:32:23.597Z,3.00
2022-08-02T20:34:53.345Z,6.43
2022-08-02T20:37:59.191Z,4.03
2022-08-02T20:40:16.605Z,6.90
2022-08-02T20:42:47.937Z,2.27
2022-08-02T20:45:17.631Z,2.77
2022-08-02T20:47:52.368Z,9.30
2022-08-02T20:50:40.037Z,4.13
2022-08-02T20:53:23.553Z,2.10
2022-08-02T20:55:56.070Z,3.70
2022-08-02T20:58:27.266Z,7.47
2022-08-02T21:00:59.520Z,4.07
2022-08-02T21:03:38.697Z,3.43
2022-08-02T21:06:09.713Z,3.77
2022-08-02T21:08:38.684Z,2.70
2022-08-02T21:11:08.977Z,3.70
2022-08-02T21:13:47.127Z,3.30
2022-08-02T21:16:28.377Z,2.43
2022-08-02T21:18:59.685Z,6.43
2022-08-02T21:21:30.049Z,6.10
2022-08-02T21:24:00.263Z,5.47
2022-08-02T21:26:32.717Z,2.23
2022-08-02T21:29:03.852Z,4.97
2022-08-02T21:31:36.503Z,4.70
2022-08-02T21:34:19.273Z,4.97
2022-08-02T21:36:56.172Z,6.20
2022-08-02T21:39:24.966Z,3.27
2022-08-02T21:41:53.921Z,4.90
2022-08-02T21:44:24.242Z,3.00
2022-08-02T21:46:54.922Z,4.33
2022-08-02T21:50:09.534Z,2.57
2022-08-02T21:52:16.940Z,2.83
2022-08-02T21:54:46.743Z,2.43
2022-08-02T21:57:16.887Z,6.03
2022-08-02T21:59:46.469Z,6.97
2022-08-02T22:02:16.022Z,6.63
2022-08-02T22:04:47.637Z,3.00
2022-08-02T22:07:23.825Z,8.63
2022-08-02T22:09:53.226Z,7.07
2022-08-02T22:12:26.304Z,4.53
2022-08-02T22:14:56.573Z,3.27
2022-08-02T22:17:52.037Z,3.90
2022-08-02T22:20:19.614Z,4.73
2022-08-02T22:22:52.066Z,3.60
2022-08-02T22:25:31.128Z,3.83
2022-08-02T22:28:36.534Z,2.40
2022-08-02T22:30:57.075Z,2.90
2022-08-02T22:33:47.094Z,3.57
2022-08-02T22:36:30.354Z,7.00
2022-08-02T22:38:58.989Z,8.83
2022-08-02T22:42:02.206Z,5.30
2022-08-02T22:44:20.143Z,5.93
2022-08-02T22:46:50.193Z,6.00
2022-08-02T22:49:38.750Z,5.27
2022-08-02T22:52:10.841Z,3.97
2022-08-02T22:54:39.867Z,3.93
2022-08-02T22:57:11.455Z,5.33
2022-08-02T22:58:34.384Z,2.25
2022-08-02T22:58:54.020Z,5.63
2022-08-02T22:59:00.206Z,7.25
2022-08-02T22:59:00.321Z,2.83
2022-08-02T22:59:41.659Z,6.20
2022-08-02T23:02:11.260Z,7.53
2022-08-02T23:04:40.198Z,9.93
2022-08-02T23:07:08.760Z,5.33
2022-08-02T23:09:39.371Z,4.53
2022-08-02T23:12:08.526Z,4.87
2022-08-02T23:14:36.992Z,4.27
2022-08-02T23:17:23.210Z,5.10
2022-08-02T23:19:54.590Z,4.07
2022-08-02T23:22:29.845Z,7.00
2022-08-02T23:25:03.793Z,9.13
2022-08-02T23:27:33.349Z,5.57
2022-08-02T23:30:02.820Z,6.13
2022-08-02T23:32:32.622Z,4.57
2022-08-02T23:35:03.133Z,5.10
2022-08-02T23:38:00.050Z,3.97
2022-08-02T23:40:39.635Z,5.80
2022-08-02T23:43:13.932Z,3.57
2022-08-02T23:45:44.425Z,5.40
2022-08-02T23:48:12.999Z,3.17
2022-08-02T23:50:41.574Z,4.87
2022-08-02T23:53:10.116Z,4.83
2022-08-02T23:55:40.217Z,6.80
2022-08-02T23:58:09.049Z,5.97
